N256VM SCVI-SAZY
Flight info
| Callsign | N256VM |
|---|---|
| Flight time | 0h 48m |
| Altitude | 13000 |
| Route | CHP |
| Aircraft | S22T/L-SDGRY/S |
Departure
| Time | 2026-04-25 00:22 |
|---|---|
| Airport | Villarrica Airport (SCVI) |
Arrival
| Time | 2026-04-25 01:11 |
|---|---|
| Airport | Aviador C. Campos Airport (SAZY) |
| Time | Latitude | Longitude | Altitude | Speed | Heading |
|---|---|---|---|---|---|
| 2026-04-25 00:20 | -39.31335 | -72.22921 | 962 ft | 0 kts | 350° |
| 2026-04-25 00:20 | -39.31331 | -72.22921 | 962 ft | 3 kts | 350° |
| 2026-04-25 00:20 | -39.31270 | -72.22963 | 962 ft | 20 kts | 311° |
| 2026-04-25 00:21 | -39.31225 | -72.23043 | 962 ft | 0 kts | 261° |
| 2026-04-25 00:21 | -39.31268 | -72.23066 | 962 ft | 19 kts | 168° |
| 2026-04-25 00:21 | -39.31775 | -72.22806 | 965 ft | 92 kts | 159° |
| 2026-04-25 00:21 | -39.32207 | -72.22593 | 1063 ft | 104 kts | 159° |
| 2026-04-25 00:22 | -39.32903 | -72.22228 | 1269 ft | 111 kts | 158° |
| 2026-04-25 00:22 | -39.33624 | -72.21814 | 1525 ft | 116 kts | 159° |
| 2026-04-25 00:22 | -39.34381 | -72.21367 | 1847 ft | 122 kts | 158° |
| 2026-04-25 00:22 | -39.35134 | -72.20909 | 2338 ft | 116 kts | 158° |
| 2026-04-25 00:23 | -39.35843 | -72.20457 | 2798 ft | 114 kts | 158° |
| 2026-04-25 00:23 | -39.36564 | -72.19992 | 3197 ft | 117 kts | 157° |
| 2026-04-25 00:23 | -39.37295 | -72.19509 | 3574 ft | 118 kts | 156° |
| 2026-04-25 00:23 | -39.38029 | -72.19034 | 3964 ft | 119 kts | 158° |
| 2026-04-25 00:24 | -39.38770 | -72.18559 | 4302 ft | 120 kts | 158° |
| 2026-04-25 00:24 | -39.39548 | -72.18069 | 4600 ft | 126 kts | 158° |
| 2026-04-25 00:24 | -39.40347 | -72.17590 | 4920 ft | 127 kts | 159° |
| 2026-04-25 00:24 | -39.41138 | -72.17107 | 5301 ft | 127 kts | 158° |
| 2026-04-25 00:25 | -39.41941 | -72.16608 | 5673 ft | 128 kts | 158° |
| 2026-04-25 00:25 | -39.42756 | -72.16099 | 6026 ft | 131 kts | 158° |
| 2026-04-25 00:25 | -39.43577 | -72.15587 | 6390 ft | 132 kts | 158° |
| 2026-04-25 00:25 | -39.44412 | -72.15064 | 6742 ft | 133 kts | 158° |
| 2026-04-25 00:26 | -39.45244 | -72.14538 | 7054 ft | 134 kts | 158° |
| 2026-04-25 00:26 | -39.46074 | -72.14004 | 7377 ft | 134 kts | 159° |
| 2026-04-25 00:26 | -39.46903 | -72.13455 | 7735 ft | 133 kts | 159° |
| 2026-04-25 00:26 | -39.47713 | -72.12899 | 8104 ft | 133 kts | 159° |
| 2026-04-25 00:27 | -39.48529 | -72.12323 | 8478 ft | 134 kts | 159° |
| 2026-04-25 00:27 | -39.49340 | -72.11728 | 8859 ft | 134 kts | 159° |
| 2026-04-25 00:27 | -39.50197 | -72.11091 | 8902 ft | 155 kts | 159° |
| 2026-04-25 00:27 | -39.51171 | -72.10394 | 8900 ft | 169 kts | 159° |
| 2026-04-25 00:28 | -39.52273 | -72.09636 | 8504 ft | 192 kts | 159° |
| 2026-04-25 00:28 | -39.53491 | -72.08863 | 7875 ft | 194 kts | 160° |
| 2026-04-25 00:28 | -39.54611 | -72.08148 | 7875 ft | 160 kts | 159° |
| 2026-04-25 00:28 | -39.55531 | -72.07521 | 7814 ft | 142 kts | 159° |
| 2026-04-25 00:29 | -39.56351 | -72.06950 | 7753 ft | 126 kts | 159° |
| 2026-04-25 00:29 | -39.57118 | -72.06422 | 7524 ft | 127 kts | 159° |
| 2026-04-25 00:29 | -39.57930 | -72.05880 | 7175 ft | 135 kts | 159° |
| 2026-04-25 00:29 | -39.58774 | -72.05338 | 6887 ft | 139 kts | 159° |
| 2026-04-25 00:30 | -39.59685 | -72.04756 | 6784 ft | 148 kts | 158° |
| 2026-04-25 00:30 | -39.60589 | -72.04178 | 6906 ft | 139 kts | 159° |
| 2026-04-25 00:30 | -39.61425 | -72.03634 | 7072 ft | 131 kts | 158° |
| 2026-04-25 00:30 | -39.62220 | -72.03109 | 7137 ft | 129 kts | 158° |
| 2026-04-25 00:31 | -39.63026 | -72.02567 | 7160 ft | 132 kts | 158° |
| 2026-04-25 00:31 | -39.63853 | -72.02000 | 7217 ft | 135 kts | 157° |
| 2026-04-25 00:31 | -39.64678 | -72.01428 | 7256 ft | 136 kts | 158° |
| 2026-04-25 00:31 | -39.65480 | -72.00875 | 7266 ft | 122 kts | 158° |
| 2026-04-25 00:32 | -39.66202 | -72.00319 | 7016 ft | 124 kts | 153° |
| 2026-04-25 00:32 | -39.66951 | -71.99672 | 6738 ft | 133 kts | 152° |
| 2026-04-25 00:32 | -39.67727 | -71.99019 | 6540 ft | 135 kts | 145° |
| 2026-04-25 00:32 | -39.68393 | -71.98158 | 6386 ft | 132 kts | 134° |
| 2026-04-25 00:33 | -39.68946 | -71.97293 | 6325 ft | 122 kts | 132° |
| 2026-04-25 00:33 | -39.69488 | -71.96439 | 6142 ft | 125 kts | 133° |
| 2026-04-25 00:33 | -39.70057 | -71.95542 | 5908 ft | 131 kts | 133° |
| 2026-04-25 00:33 | -39.70638 | -71.94630 | 5664 ft | 131 kts | 132° |
| 2026-04-25 00:34 | -39.71218 | -71.93738 | 5385 ft | 130 kts | 133° |
| 2026-04-25 00:34 | -39.71802 | -71.92825 | 5166 ft | 132 kts | 133° |
| 2026-04-25 00:34 | -39.72385 | -71.91890 | 4983 ft | 133 kts | 132° |
| 2026-04-25 00:34 | -39.72936 | -71.90997 | 4941 ft | 123 kts | 131° |
| 2026-04-25 00:35 | -39.73457 | -71.90151 | 4731 ft | 118 kts | 132° |
| 2026-04-25 00:35 | -39.73974 | -71.89345 | 4581 ft | 115 kts | 132° |
| 2026-04-25 00:35 | -39.74447 | -71.88608 | 4660 ft | 103 kts | 131° |
| 2026-04-25 00:35 | -39.74969 | -71.87933 | 4763 ft | 107 kts | 151° |
| 2026-04-25 00:36 | -39.75692 | -71.87684 | 4854 ft | 111 kts | 191° |
| 2026-04-25 00:36 | -39.76136 | -71.88231 | 5057 ft | 107 kts | 279° |
| 2026-04-25 00:36 | -39.75510 | -71.88813 | 5250 ft | 134 kts | 6° |
| 2026-04-25 00:36 | -39.75014 | -71.87826 | 5599 ft | 140 kts | 98° |
| 2026-04-25 00:37 | -39.75561 | -71.87080 | 6044 ft | 119 kts | 187° |
| 2026-04-25 00:37 | -39.76350 | -71.87452 | 6237 ft | 128 kts | 213° |
| 2026-04-25 00:37 | -39.77163 | -71.88091 | 6359 ft | 144 kts | 218° |
| 2026-04-25 00:37 | -39.77983 | -71.88938 | 6219 ft | 167 kts | 224° |
| 2026-04-25 00:38 | -39.79017 | -71.89647 | 6159 ft | 178 kts | 188° |
| 2026-04-25 00:38 | -39.80237 | -71.89280 | 6236 ft | 178 kts | 167° |
| 2026-04-25 00:38 | -39.81430 | -71.88936 | 6356 ft | 178 kts | 174° |
| 2026-04-25 00:38 | -39.82699 | -71.88911 | 6156 ft | 187 kts | 195° |
| 2026-04-25 00:39 | -39.83965 | -71.89296 | 5744 ft | 203 kts | 183° |
| 2026-04-25 00:39 | -39.85358 | -71.88805 | 5427 ft | 213 kts | 149° |
| 2026-04-25 00:39 | -39.86298 | -71.87223 | 4822 ft | 226 kts | 124° |
| 2026-04-25 00:39 | -39.87147 | -71.85588 | 4730 ft | 213 kts | 128° |
| 2026-04-25 00:40 | -39.88034 | -71.84115 | 4793 ft | 199 kts | 131° |
| 2026-04-25 00:40 | -39.88911 | -71.82796 | 4907 ft | 190 kts | 136° |
| 2026-04-25 00:40 | -39.89857 | -71.81578 | 4897 ft | 191 kts | 138° |
| 2026-04-25 00:40 | -39.90989 | -71.80506 | 4352 ft | 209 kts | 149° |
| 2026-04-25 00:41 | -39.92048 | -71.79319 | 4346 ft | 201 kts | 124° |
| 2026-04-25 00:41 | -39.92606 | -71.77639 | 4142 ft | 195 kts | 110° |
| 2026-04-25 00:41 | -39.93542 | -71.76670 | 4161 ft | 148 kts | 154° |
| 2026-04-25 00:41 | -39.94394 | -71.76078 | 3943 ft | 134 kts | 155° |
| 2026-04-25 00:42 | -39.95169 | -71.75457 | 3789 ft | 134 kts | 146° |
| 2026-04-25 00:42 | -39.96037 | -71.75058 | 3981 ft | 143 kts | 169° |
| 2026-04-25 00:42 | -39.97059 | -71.74750 | 4085 ft | 152 kts | 170° |
| 2026-04-25 00:42 | -39.98122 | -71.74387 | 4143 ft | 163 kts | 165° |
| 2026-04-25 00:43 | -39.99152 | -71.74013 | 3909 ft | 154 kts | 170° |
| 2026-04-25 00:43 | -40.00073 | -71.73767 | 4048 ft | 111 kts | 194° |
| 2026-04-25 00:43 | -40.00814 | -71.74106 | 3681 ft | 126 kts | 179° |
| 2026-04-25 00:43 | -40.01549 | -71.73642 | 3675 ft | 106 kts | 173° |
| 2026-04-25 00:44 | -40.02247 | -71.73589 | 3564 ft | 103 kts | 168° |
| 2026-04-25 00:44 | -40.02958 | -71.73425 | 3406 ft | 108 kts | 186° |
| 2026-04-25 00:44 | -40.03725 | -71.73415 | 3533 ft | 101 kts | 184° |
| 2026-04-25 00:44 | -40.04433 | -71.73193 | 3218 ft | 117 kts | 154° |
| 2026-04-25 00:45 | -40.04711 | -71.72446 | 3066 ft | 106 kts | 45° |
| 2026-04-25 00:45 | -40.04070 | -71.71917 | 2766 ft | 114 kts | 13° |
| 2026-04-25 00:45 | -40.03348 | -71.72015 | 2374 ft | 99 kts | 325° |
| 2026-04-25 00:45 | -40.02708 | -71.72055 | 2117 ft | 93 kts | 7° |
| 2026-04-25 00:46 | -40.02101 | -71.72015 | 2384 ft | 87 kts | 351° |
| 2026-04-25 00:46 | -40.01519 | -71.72092 | 2666 ft | 83 kts | 349° |
| 2026-04-25 00:46 | -40.00650 | -71.73053 | 3170 ft | 104 kts | 270° |
| 2026-04-25 00:47 | -40.01059 | -71.73875 | 3409 ft | 117 kts | 202° |
| 2026-04-25 00:47 | -40.01916 | -71.73901 | 3616 ft | 132 kts | 173° |
| 2026-04-25 00:47 | -40.02831 | -71.73644 | 3782 ft | 143 kts | 169° |
| 2026-04-25 00:47 | -40.03810 | -71.73329 | 3407 ft | 146 kts | 167° |
| 2026-04-25 00:48 | -40.04201 | -71.72539 | 3156 ft | 122 kts | 50° |
| 2026-04-25 00:48 | -40.03612 | -71.72008 | 2854 ft | 94 kts | 339° |
| 2026-04-25 00:48 | -40.02886 | -71.72132 | 2065 ft | 114 kts | 14° |
| 2026-04-25 00:48 | -40.02256 | -71.72162 | 2278 ft | 85 kts | 325° |
| 2026-04-25 00:49 | -40.01801 | -71.72624 | 2494 ft | 83 kts | 311° |
| 2026-04-25 00:49 | -40.01676 | -71.73302 | 2676 ft | 100 kts | 227° |
| 2026-04-25 00:49 | -40.02354 | -71.73470 | 2945 ft | 114 kts | 172° |
| 2026-04-25 00:49 | -40.03143 | -71.73198 | 3222 ft | 123 kts | 182° |
| 2026-04-25 00:50 | -40.04021 | -71.73303 | 3469 ft | 125 kts | 188° |
| 2026-04-25 00:50 | -40.04785 | -71.73264 | 3564 ft | 92 kts | 170° |
| 2026-04-25 00:50 | -40.05057 | -71.72596 | 2823 ft | 118 kts | 47° |
| 2026-04-25 00:50 | -40.04402 | -71.72221 | 2561 ft | 90 kts | 21° |
| 2026-04-25 00:51 | -40.03855 | -71.71939 | 2493 ft | 78 kts | 9° |
| 2026-04-25 00:51 | -40.03363 | -71.72084 | 2390 ft | 74 kts | 327° |
| 2026-04-25 00:51 | -40.02801 | -71.72088 | 2068 ft | 84 kts | 9° |
| 2026-04-25 00:51 | -40.02242 | -71.72157 | 2268 ft | 92 kts | 304° |
| 2026-04-25 00:52 | -40.02387 | -71.72901 | 2606 ft | 100 kts | 205° |
| 2026-04-25 00:52 | -40.03085 | -71.73034 | 3013 ft | 107 kts | 178° |
| 2026-04-25 00:52 | -40.03892 | -71.72873 | 3221 ft | 125 kts | 172° |
| 2026-04-25 00:52 | -40.04753 | -71.72567 | 3364 ft | 139 kts | 164° |
| 2026-04-25 00:53 | -40.05771 | -71.72091 | 3234 ft | 166 kts | 162° |
| 2026-04-25 00:53 | -40.06844 | -71.71552 | 3424 ft | 162 kts | 160° |
| 2026-04-25 00:53 | -40.07836 | -71.70836 | 3520 ft | 169 kts | 142° |
| 2026-04-25 00:53 | -40.08678 | -71.69735 | 3568 ft | 175 kts | 135° |
| 2026-04-25 00:54 | -40.09559 | -71.68563 | 3503 ft | 184 kts | 138° |
| 2026-04-25 00:54 | -40.10466 | -71.67400 | 3547 ft | 181 kts | 137° |
| 2026-04-25 00:54 | -40.11347 | -71.66281 | 3787 ft | 171 kts | 140° |
| 2026-04-25 00:54 | -40.12258 | -71.65204 | 3684 ft | 184 kts | 142° |
| 2026-04-25 00:55 | -40.13178 | -71.64046 | 3771 ft | 181 kts | 133° |
| 2026-04-25 00:55 | -40.13885 | -71.62715 | 3943 ft | 178 kts | 118° |
| 2026-04-25 00:55 | -40.14387 | -71.61222 | 3943 ft | 183 kts | 111° |
| 2026-04-25 00:55 | -40.14814 | -71.59640 | 4021 ft | 183 kts | 107° |
| 2026-04-25 00:56 | -40.15023 | -71.57996 | 4069 ft | 182 kts | 95° |
| 2026-04-25 00:56 | -40.15085 | -71.56385 | 4162 ft | 179 kts | 88° |
| 2026-04-25 00:56 | -40.14947 | -71.54694 | 4036 ft | 189 kts | 82° |
| 2026-04-25 00:56 | -40.14792 | -71.52955 | 3880 ft | 196 kts | 86° |
| 2026-04-25 00:57 | -40.14697 | -71.51236 | 4061 ft | 186 kts | 85° |
| 2026-04-25 00:57 | -40.14549 | -71.49552 | 4083 ft | 188 kts | 83° |
| 2026-04-25 00:57 | -40.14267 | -71.47860 | 3938 ft | 193 kts | 74° |
| 2026-04-25 00:57 | -40.13889 | -71.46193 | 4050 ft | 185 kts | 75° |
| 2026-04-25 00:58 | -40.13636 | -71.44564 | 4193 ft | 181 kts | 83° |
| 2026-04-25 00:58 | -40.13623 | -71.42914 | 4052 ft | 191 kts | 97° |
| 2026-04-25 00:58 | -40.13632 | -71.41129 | 3830 ft | 200 kts | 85° |
| 2026-04-25 00:58 | -40.13479 | -71.39317 | 3770 ft | 199 kts | 83° |
| 2026-04-25 00:59 | -40.13329 | -71.37565 | 3770 ft | 193 kts | 85° |
| 2026-04-25 00:59 | -40.13225 | -71.35819 | 3735 ft | 192 kts | 86° |
| 2026-04-25 00:59 | -40.13137 | -71.34044 | 3568 ft | 198 kts | 87° |
| 2026-04-25 00:59 | -40.13057 | -71.32262 | 3469 ft | 199 kts | 88° |
| 2026-04-25 01:00 | -40.12949 | -71.30468 | 3466 ft | 194 kts | 84° |
| 2026-04-25 01:00 | -40.12734 | -71.28771 | 3541 ft | 189 kts | 77° |
| 2026-04-25 01:00 | -40.12329 | -71.27122 | 3461 ft | 192 kts | 60° |
| 2026-04-25 01:00 | -40.11610 | -71.25568 | 3208 ft | 203 kts | 59° |
| 2026-04-25 01:01 | -40.11133 | -71.23869 | 3122 ft | 201 kts | 77° |
| 2026-04-25 01:01 | -40.10772 | -71.22137 | 3207 ft | 191 kts | 74° |
| 2026-04-25 01:01 | -40.10408 | -71.20522 | 3365 ft | 183 kts | 72° |
| 2026-04-25 01:01 | -40.09990 | -71.18976 | 3520 ft | 178 kts | 68° |
| 2026-04-25 01:02 | -40.09522 | -71.17491 | 3626 ft | 176 kts | 61° |
| 2026-04-25 01:02 | -40.08707 | -71.16250 | 3434 ft | 189 kts | 38° |
| 2026-04-25 01:02 | -40.07926 | -71.14892 | 3335 ft | 195 kts | 86° |
| 2026-04-25 01:02 | -40.08716 | -71.14583 | 3112 ft | 180 kts | 264° |
| 2026-04-25 01:03 | -40.07842 | -71.14647 | 2954 ft | 195 kts | 62° |
| 2026-04-25 01:03 | -40.07297 | -71.13117 | 3200 ft | 181 kts | 70° |
| 2026-04-25 01:03 | -40.07271 | -71.11561 | 3422 ft | 172 kts | 110° |
| 2026-04-25 01:03 | -40.07784 | -71.10208 | 3721 ft | 165 kts | 120° |
| 2026-04-25 01:04 | -40.08030 | -71.08837 | 3674 ft | 156 kts | 96° |
| 2026-04-25 01:04 | -40.08155 | -71.07437 | 3577 ft | 152 kts | 86° |
| 2026-04-25 01:04 | -40.07635 | -71.06391 | 3406 ft | 137 kts | 32° |
| 2026-04-25 01:04 | -40.06761 | -71.06025 | 3161 ft | 127 kts | 355° |
| 2026-04-25 01:05 | -40.05996 | -71.06417 | 2951 ft | 114 kts | 318° |
| 2026-04-25 01:05 | -40.05402 | -71.06920 | 3032 ft | 92 kts | 2° |
| 2026-04-25 01:05 | -40.04700 | -71.06884 | 3218 ft | 100 kts | 341° |
| 2026-04-25 01:05 | -40.03993 | -71.07440 | 3197 ft | 136 kts | 316° |
| 2026-04-25 01:06 | -40.03904 | -71.08492 | 3563 ft | 127 kts | 245° |
| 2026-04-25 01:06 | -40.04434 | -71.09258 | 4026 ft | 126 kts | 194° |
| 2026-04-25 01:06 | -40.05439 | -71.09613 | 3478 ft | 173 kts | 217° |
| 2026-04-25 01:06 | -40.06100 | -71.10818 | 3715 ft | 157 kts | 252° |
| 2026-04-25 01:07 | -40.06298 | -71.12079 | 4416 ft | 123 kts | 263° |
| 2026-04-25 01:07 | -40.06392 | -71.13052 | 5129 ft | 97 kts | 263° |
| 2026-04-25 01:07 | -40.06444 | -71.13888 | 5634 ft | 92 kts | 258° |
| 2026-04-25 01:07 | -40.07080 | -71.14345 | 5065 ft | 138 kts | 189° |
| 2026-04-25 01:08 | -40.08215 | -71.14221 | 4217 ft | 177 kts | 179° |
| 2026-04-25 01:08 | -40.09405 | -71.14320 | 4156 ft | 167 kts | 213° |
| 2026-04-25 01:08 | -40.09224 | -71.15380 | 3590 ft | 191 kts | 2° |
| 2026-04-25 01:08 | -40.07997 | -71.14859 | 3218 ft | 199 kts | 42° |
| 2026-04-25 01:09 | -40.07337 | -71.13179 | 2677 ft | 217 kts | 69° |
| 2026-04-25 01:09 | -40.06980 | -71.11719 | 3548 ft | 125 kts | 75° |
| 2026-04-25 01:09 | -40.07212 | -71.10535 | 3144 ft | 137 kts | 95° |
| 2026-04-25 01:09 | -40.06734 | -71.10147 | 3258 ft | 98 kts | 297° |
| 2026-04-25 01:10 | -40.06765 | -71.11036 | 3007 ft | 125 kts | 250° |
| 2026-04-25 01:10 | -40.07053 | -71.12175 | 2766 ft | 128 kts | 250° |
| 2026-04-25 01:10 | -40.07321 | -71.13090 | 2576 ft | 87 kts | 250° |
| 2026-04-25 01:10 | -40.07501 | -71.13682 | 2569 ft | 57 kts | 243° |
| 2026-04-25 01:11 | -40.07700 | -71.13925 | 2574 ft | 31 kts | 213° |
| 2026-04-25 01:11 | -40.07740 | -71.13905 | 2574 ft | 7 kts | 120° |
| 2026-04-25 01:11 | -40.07765 | -71.13911 | 2574 ft | 4 kts | 248° |
| 2026-04-25 01:11 | -40.07762 | -71.13944 | 2575 ft | 3 kts | 309° |
| 2026-04-25 01:12 | -40.07762 | -71.13945 | 2573 ft | 0 kts | 310° |